Averill, Minnesota
Current Conditions -  °F | °C
As of 10:34 PM on Saturday 25 Oct 2014 (Local Time) from KJKJ Reporting Station
Clear Clear  
Wind Chill: 41°   Ceiling: Unl
Heat Index: 41°   Visibility: 10mi
Dew Point: 21°   Wind: 0mph
Humidity: 45%   Direction: NA
Pressure: 30.03"   Gusts: NA
Location:  46.8905°N, 96.5417°W
Report Text: KJKJ 260334Z AUTO 00000KT 10SM CLR 05/M06 A3003 RMK AO2
Loading
Personal Weather Stations






























Interactive Weather Map
Tropical Storm Tracking
New forecast layout! Learn more

10-Day Weather Forecast

Advertisements
Track Severe Weather on mobile